Flugplatz St. Michaelisdonn

Für EDXM sind keine METAR/TAF Berichte vorhanden.
Es werden die Flugwettermeldungen vom Flugplatz Nordholz Airport in 39 km Entfernung angezeigt.

Bericht für ETMN

vom 10.04. um 11:20 UTC

Wind 5 kt aus 50°

Sichtweite 10 km oder mehr

gering bewölkt in 4000 ft

aufgebrochene Bewölkung in 9000 ft

Temperatur 7.0°C

Taupunkt -5.0°C

Luftfeuchtigkeit 42%

Luftdruck 1017 hPa

ETMN 101120Z 05005KT 9999 FEW040 BKN090 07/M05 Q1017 BLU
Keine Prognose (TAF) verfügbar.
Impressum